sensor_id;sensor_type;location;lat;lon;timestamp;P1;durP1;ratioP1;P2;durP2;ratioP2
3267;SDS011;1646;52.450;13.326;2023-05-02T00:02:33;9.20;;;5.23;;
3267;SDS011;1646;52.450;13.326;2023-05-02T00:07:31;8.73;;;5.20;;
3267;SDS011;1646;52.450;13.326;2023-05-02T00:12:30;8.10;;;5.00;;
3267;SDS011;1646;52.450;13.326;2023-05-02T00:17:29;9.07;;;4.93;;
3267;SDS011;1646;52.450;13.326;2023-05-02T00:22:28;11.50;;;5.33;;
3267;SDS011;1646;52.450;13.326;2023-05-02T00:27:26;9.83;;;5.37;;
3267;SDS011;1646;52.450;13.326;2023-05-02T00:32:27;7.10;;;5.10;;
3267;SDS011;1646;52.450;13.326;2023-05-02T00:37:26;6.07;;;5.13;;
3267;SDS011;1646;52.450;13.326;2023-05-02T00:42:25;7.33;;;5.10;;
3267;SDS011;1646;52.450;13.326;2023-05-02T00:47:24;10.03;;;5.50;;
3267;SDS011;1646;52.450;13.326;2023-05-02T00:52:23;7.47;;;5.63;;
3267;SDS011;1646;52.450;13.326;2023-05-02T00:57:23;11.83;;;6.17;;
3267;SDS011;1646;52.450;13.326;2023-05-02T01:02:25;9.43;;;5.27;;
3267;SDS011;1646;52.450;13.326;2023-05-02T01:13:05;11.40;;;5.30;;
3267;SDS011;1646;52.450;13.326;2023-05-02T01:18:08;7.00;;;5.00;;
3267;SDS011;1646;52.450;13.326;2023-05-02T01:23:09;10.50;;;5.43;;
3267;SDS011;1646;52.450;13.326;2023-05-02T01:28:15;10.23;;;5.83;;
3267;SDS011;1646;52.450;13.326;2023-05-02T01:33:24;11.37;;;5.37;;
3267;SDS011;1646;52.450;13.326;2023-05-02T01:38:25;11.10;;;5.77;;
3267;SDS011;1646;52.450;13.326;2023-05-02T01:43:24;7.87;;;5.00;;
3267;SDS011;1646;52.450;13.326;2023-05-02T01:48:24;10.53;;;5.60;;
3267;SDS011;1646;52.450;13.326;2023-05-02T01:53:26;8.83;;;5.63;;
3267;SDS011;1646;52.450;13.326;2023-05-02T01:58:26;8.03;;;5.20;;
3267;SDS011;1646;52.450;13.326;2023-05-02T02:03:27;9.40;;;5.23;;
3267;SDS011;1646;52.450;13.326;2023-05-02T02:08:27;8.73;;;5.13;;
3267;SDS011;1646;52.450;13.326;2023-05-02T02:13:29;8.90;;;5.20;;
3267;SDS011;1646;52.450;13.326;2023-05-02T02:18:34;7.53;;;4.53;;
3267;SDS011;1646;52.450;13.326;2023-05-02T02:23:34;13.97;;;5.47;;
3267;SDS011;1646;52.450;13.326;2023-05-02T02:28:34;6.93;;;4.40;;
3267;SDS011;1646;52.450;13.326;2023-05-02T02:33:34;9.40;;;4.87;;
3267;SDS011;1646;52.450;13.326;2023-05-02T02:38:35;8.33;;;4.90;;
3267;SDS011;1646;52.450;13.326;2023-05-02T02:43:42;11.80;;;4.53;;
3267;SDS011;1646;52.450;13.326;2023-05-02T02:48:47;7.47;;;4.87;;
3267;SDS011;1646;52.450;13.326;2023-05-02T02:53:54;5.63;;;4.07;;
3267;SDS011;1646;52.450;13.326;2023-05-02T02:59:06;6.67;;;4.73;;
3267;SDS011;1646;52.450;13.326;2023-05-02T03:04:11;10.43;;;4.80;;
3267;SDS011;1646;52.450;13.326;2023-05-02T03:09:15;10.43;;;4.70;;
3267;SDS011;1646;52.450;13.326;2023-05-02T03:14:17;6.87;;;5.30;;
3267;SDS011;1646;52.450;13.326;2023-05-02T03:19:17;6.73;;;3.60;;
3267;SDS011;1646;52.450;13.326;2023-05-02T03:24:16;7.10;;;4.33;;
3267;SDS011;1646;52.450;13.326;2023-05-02T03:29:15;6.60;;;4.73;;
3267;SDS011;1646;52.450;13.326;2023-05-02T03:34:14;8.27;;;5.00;;
3267;SDS011;1646;52.450;13.326;2023-05-02T03:39:16;7.00;;;4.50;;
3267;SDS011;1646;52.450;13.326;2023-05-02T03:44:15;6.80;;;4.70;;
3267;SDS011;1646;52.450;13.326;2023-05-02T03:49:13;10.23;;;5.07;;
3267;SDS011;1646;52.450;13.326;2023-05-02T03:54:14;7.40;;;4.70;;
3267;SDS011;1646;52.450;13.326;2023-05-02T03:59:14;7.10;;;3.87;;
3267;SDS011;1646;52.450;13.326;2023-05-02T04:04:14;7.50;;;4.47;;
3267;SDS011;1646;52.450;13.326;2023-05-02T04:09:18;7.67;;;4.13;;
3267;SDS011;1646;52.450;13.326;2023-05-02T04:14:42;5.10;;;3.87;;
3267;SDS011;1646;52.450;13.326;2023-05-02T04:19:41;4.50;;;3.20;;
3267;SDS011;1646;52.450;13.326;2023-05-02T04:24:40;11.33;;;4.23;;
3267;SDS011;1646;52.450;13.326;2023-05-02T04:29:39;3.97;;;3.30;;
3267;SDS011;1646;52.450;13.326;2023-05-02T04:34:40;5.40;;;3.43;;
3267;SDS011;1646;52.450;13.326;2023-05-02T04:39:39;8.00;;;3.90;;
3267;SDS011;1646;52.450;13.326;2023-05-02T04:44:43;7.37;;;3.57;;
3267;SDS011;1646;52.450;13.326;2023-05-02T04:49:43;8.67;;;2.97;;
3267;SDS011;1646;52.450;13.326;2023-05-02T04:54:42;12.70;;;3.73;;
3267;SDS011;1646;52.450;13.326;2023-05-02T04:59:40;6.30;;;3.00;;
3267;SDS011;1646;52.450;13.326;2023-05-02T05:04:39;6.43;;;3.47;;
3267;SDS011;1646;52.450;13.326;2023-05-02T05:09:39;5.63;;;3.20;;
3267;SDS011;1646;52.450;13.326;2023-05-02T05:14:37;5.23;;;3.60;;
3267;SDS011;1646;52.450;13.326;2023-05-02T05:19:36;5.03;;;4.07;;
3267;SDS011;1646;52.450;13.326;2023-05-02T05:24:36;5.57;;;3.50;;
3267;SDS011;1646;52.450;13.326;2023-05-02T05:29:36;7.33;;;3.40;;
3267;SDS011;1646;52.450;13.326;2023-05-02T05:34:34;11.10;;;4.57;;
3267;SDS011;1646;52.450;13.326;2023-05-02T05:39:33;12.83;;;4.30;;
3267;SDS011;1646;52.450;13.326;2023-05-02T05:44:31;10.40;;;4.10;;
3267;SDS011;1646;52.450;13.326;2023-05-02T05:49:31;7.17;;;4.77;;
3267;SDS011;1646;52.450;13.326;2023-05-02T05:54:35;9.43;;;4.63;;
3267;SDS011;1646;52.450;13.326;2023-05-02T05:59:34;13.57;;;4.73;;
3267;SDS011;1646;52.450;13.326;2023-05-02T06:04:35;8.10;;;4.83;;
3267;SDS011;1646;52.450;13.326;2023-05-02T06:09:34;8.00;;;4.67;;
3267;SDS011;1646;52.450;13.326;2023-05-02T06:14:32;9.27;;;5.77;;
3267;SDS011;1646;52.450;13.326;2023-05-02T06:19:31;10.33;;;6.27;;
3267;SDS011;1646;52.450;13.326;2023-05-02T06:24:31;16.33;;;6.60;;
3267;SDS011;1646;52.450;13.326;2023-05-02T06:29:30;16.33;;;7.73;;
3267;SDS011;1646;52.450;13.326;2023-05-02T06:34:30;10.93;;;6.57;;
3267;SDS011;1646;52.450;13.326;2023-05-02T06:39:28;18.47;;;8.97;;
3267;SDS011;1646;52.450;13.326;2023-05-02T06:44:28;13.43;;;8.03;;
3267;SDS011;1646;52.450;13.326;2023-05-02T06:49:26;15.50;;;8.60;;
3267;SDS011;1646;52.450;13.326;2023-05-02T06:54:24;16.80;;;8.80;;
3267;SDS011;1646;52.450;13.326;2023-05-02T06:59:23;15.93;;;8.73;;
3267;SDS011;1646;52.450;13.326;2023-05-02T07:04:23;13.47;;;8.90;;
3267;SDS011;1646;52.450;13.326;2023-05-02T07:09:21;12.33;;;7.53;;
3267;SDS011;1646;52.450;13.326;2023-05-02T07:14:19;10.13;;;7.27;;
3267;SDS011;1646;52.450;13.326;2023-05-02T07:19:18;11.10;;;7.03;;
3267;SDS011;1646;52.450;13.326;2023-05-02T07:24:17;8.83;;;5.90;;
3267;SDS011;1646;52.450;13.326;2023-05-02T07:29:16;13.10;;;6.80;;
3267;SDS011;1646;52.450;13.326;2023-05-02T07:34:14;11.80;;;6.30;;
3267;SDS011;1646;52.450;13.326;2023-05-02T07:39:12;9.73;;;6.23;;
3267;SDS011;1646;52.450;13.326;2023-05-02T07:44:12;11.53;;;6.90;;
3267;SDS011;1646;52.450;13.326;2023-05-02T07:49:10;12.57;;;6.70;;
3267;SDS011;1646;52.450;13.326;2023-05-02T07:54:15;11.37;;;7.70;;
3267;SDS011;1646;52.450;13.326;2023-05-02T07:59:15;13.00;;;6.67;;
3267;SDS011;1646;52.450;13.326;2023-05-02T08:04:13;12.50;;;6.53;;
3267;SDS011;1646;52.450;13.326;2023-05-02T08:09:12;11.30;;;6.70;;
3267;SDS011;1646;52.450;13.326;2023-05-02T08:14:10;10.83;;;6.63;;
3267;SDS011;1646;52.450;13.326;2023-05-02T08:19:09;8.73;;;6.60;;
3267;SDS011;1646;52.450;13.326;2023-05-02T08:24:08;9.83;;;5.70;;
3267;SDS011;1646;52.450;13.326;2023-05-02T08:29:06;12.90;;;7.80;;
3267;SDS011;1646;52.450;13.326;2023-05-02T08:34:07;9.73;;;6.47;;
3267;SDS011;1646;52.450;13.326;2023-05-02T08:39:06;7.87;;;5.30;;
3267;SDS011;1646;52.450;13.326;2023-05-02T08:44:05;7.97;;;5.00;;
3267;SDS011;1646;52.450;13.326;2023-05-02T08:49:04;8.23;;;5.33;;
3267;SDS011;1646;52.450;13.326;2023-05-02T08:54:03;6.50;;;3.97;;
3267;SDS011;1646;52.450;13.326;2023-05-02T08:59:06;7.53;;;4.53;;
3267;SDS011;1646;52.450;13.326;2023-05-02T09:04:05;8.30;;;3.63;;
3267;SDS011;1646;52.450;13.326;2023-05-02T09:09:03;12.87;;;3.57;;
3267;SDS011;1646;52.450;13.326;2023-05-02T09:14:02;3.70;;;2.80;;
3267;SDS011;1646;52.450;13.326;2023-05-02T09:19:22;5.47;;;3.40;;
3267;SDS011;1646;52.450;13.326;2023-05-02T09:24:21;7.47;;;3.30;;
3267;SDS011;1646;52.450;13.326;2023-05-02T09:29:22;6.70;;;2.97;;
3267;SDS011;1646;52.450;13.326;2023-05-02T09:34:21;5.60;;;3.57;;
3267;SDS011;1646;52.450;13.326;2023-05-02T09:39:20;9.10;;;3.67;;
3267;SDS011;1646;52.450;13.326;2023-05-02T09:44:23;6.47;;;3.87;;
3267;SDS011;1646;52.450;13.326;2023-05-02T09:49:38;4.77;;;3.37;;
3267;SDS011;1646;52.450;13.326;2023-05-02T09:54:37;4.03;;;3.60;;
3267;SDS011;1646;52.450;13.326;2023-05-02T09:59:37;7.50;;;4.50;;
3267;SDS011;1646;52.450;13.326;2023-05-02T10:04:36;8.70;;;5.17;;
3267;SDS011;1646;52.450;13.326;2023-05-02T10:09:35;9.90;;;4.50;;
3267;SDS011;1646;52.450;13.326;2023-05-02T10:14:42;7.13;;;4.50;;
3267;SDS011;1646;52.450;13.326;2023-05-02T10:19:49;7.80;;;5.07;;
3267;SDS011;1646;52.450;13.326;2023-05-02T10:24:56;5.63;;;4.03;;
3267;SDS011;1646;52.450;13.326;2023-05-02T10:29:58;6.33;;;3.70;;
3267;SDS011;1646;52.450;13.326;2023-05-02T10:34:56;4.23;;;3.20;;
3267;SDS011;1646;52.450;13.326;2023-05-02T10:40:00;7.53;;;4.10;;
3267;SDS011;1646;52.450;13.326;2023-05-02T10:45:00;3.60;;;2.90;;
3267;SDS011;1646;52.450;13.326;2023-05-02T10:49:59;4.67;;;2.83;;
3267;SDS011;1646;52.450;13.326;2023-05-02T10:55:15;7.80;;;3.60;;
3267;SDS011;1646;52.450;13.326;2023-05-02T11:00:22;4.23;;;2.67;;
3267;SDS011;1646;52.450;13.326;2023-05-02T11:05:21;5.37;;;3.90;;
3267;SDS011;1646;52.450;13.326;2023-05-02T11:10:23;8.17;;;4.73;;
3267;SDS011;1646;52.450;13.326;2023-05-02T11:20:54;12.83;;;6.03;;
3267;SDS011;1646;52.450;13.326;2023-05-02T11:26:22;16.03;;;5.30;;
3267;SDS011;1646;52.450;13.326;2023-05-02T11:36:51;16.40;;;6.50;;
3267;SDS011;1646;52.450;13.326;2023-05-02T11:41:49;9.87;;;5.30;;
3267;SDS011;1646;52.450;13.326;2023-05-02T11:46:48;10.00;;;4.30;;
3267;SDS011;1646;52.450;13.326;2023-05-02T11:51:48;10.47;;;4.07;;
3267;SDS011;1646;52.450;13.326;2023-05-02T11:56:46;11.93;;;4.17;;
3267;SDS011;1646;52.450;13.326;2023-05-02T12:01:48;13.83;;;4.37;;
3267;SDS011;1646;52.450;13.326;2023-05-02T12:06:56;8.13;;;4.33;;
3267;SDS011;1646;52.450;13.326;2023-05-02T12:11:54;8.60;;;3.60;;
3267;SDS011;1646;52.450;13.326;2023-05-02T12:16:52;16.13;;;4.30;;
3267;SDS011;1646;52.450;13.326;2023-05-02T12:21:51;15.23;;;3.70;;
3267;SDS011;1646;52.450;13.326;2023-05-02T12:26:53;10.60;;;4.20;;
3267;SDS011;1646;52.450;13.326;2023-05-02T12:32:05;6.03;;;3.30;;
3267;SDS011;1646;52.450;13.326;2023-05-02T12:37:04;8.50;;;4.33;;
3267;SDS011;1646;52.450;13.326;2023-05-02T12:42:11;8.73;;;3.47;;
3267;SDS011;1646;52.450;13.326;2023-05-02T12:47:11;4.83;;;3.50;;
3267;SDS011;1646;52.450;13.326;2023-05-02T12:52:10;19.63;;;3.63;;
3267;SDS011;1646;52.450;13.326;2023-05-02T12:57:08;20.20;;;3.93;;
3267;SDS011;1646;52.450;13.326;2023-05-02T13:02:18;12.90;;;4.77;;
3267;SDS011;1646;52.450;13.326;2023-05-02T13:07:16;11.90;;;4.30;;
3267;SDS011;1646;52.450;13.326;2023-05-02T13:12:16;16.37;;;4.10;;
3267;SDS011;1646;52.450;13.326;2023-05-02T13:17:14;12.97;;;4.17;;
3267;SDS011;1646;52.450;13.326;2023-05-02T13:22:13;12.80;;;4.27;;
3267;SDS011;1646;52.450;13.326;2023-05-02T13:27:11;10.03;;;3.40;;
3267;SDS011;1646;52.450;13.326;2023-05-02T13:32:12;14.90;;;3.60;;
3267;SDS011;1646;52.450;13.326;2023-05-02T13:37:10;7.33;;;4.10;;
3267;SDS011;1646;52.450;13.326;2023-05-02T13:42:08;20.77;;;4.63;;
3267;SDS011;1646;52.450;13.326;2023-05-02T13:47:06;11.20;;;4.07;;
3267;SDS011;1646;52.450;13.326;2023-05-02T13:52:06;8.83;;;4.10;;
3267;SDS011;1646;52.450;13.326;2023-05-02T13:57:04;12.27;;;4.90;;
3267;SDS011;1646;52.450;13.326;2023-05-02T14:02:02;10.30;;;4.03;;
3267;SDS011;1646;52.450;13.326;2023-05-02T14:07:01;13.50;;;4.33;;
3267;SDS011;1646;52.450;13.326;2023-05-02T14:12:01;9.40;;;3.97;;
3267;SDS011;1646;52.450;13.326;2023-05-02T14:17:00;16.90;;;4.50;;
3267;SDS011;1646;52.450;13.326;2023-05-02T14:21:58;12.73;;;4.87;;
3267;SDS011;1646;52.450;13.326;2023-05-02T14:26:57;8.97;;;3.80;;
3267;SDS011;1646;52.450;13.326;2023-05-02T14:31:56;9.17;;;4.20;;
3267;SDS011;1646;52.450;13.326;2023-05-02T14:36:54;10.80;;;3.90;;
3267;SDS011;1646;52.450;13.326;2023-05-02T14:41:53;8.60;;;3.80;;
3267;SDS011;1646;52.450;13.326;2023-05-02T14:46:52;10.80;;;3.80;;
3267;SDS011;1646;52.450;13.326;2023-05-02T14:51:53;11.03;;;4.53;;
3267;SDS011;1646;52.450;13.326;2023-05-02T14:56:53;8.20;;;4.30;;
3267;SDS011;1646;52.450;13.326;2023-05-02T15:01:52;8.23;;;4.50;;
3267;SDS011;1646;52.450;13.326;2023-05-02T15:06:50;7.10;;;3.37;;
3267;SDS011;1646;52.450;13.326;2023-05-02T15:11:51;7.57;;;3.60;;
3267;SDS011;1646;52.450;13.326;2023-05-02T15:16:49;7.53;;;3.50;;
3267;SDS011;1646;52.450;13.326;2023-05-02T15:21:47;10.30;;;3.37;;
3267;SDS011;1646;52.450;13.326;2023-05-02T15:26:49;6.90;;;3.37;;
3267;SDS011;1646;52.450;13.326;2023-05-02T15:31:48;13.20;;;5.00;;
3267;SDS011;1646;52.450;13.326;2023-05-02T15:36:46;11.97;;;5.40;;
3267;SDS011;1646;52.450;13.326;2023-05-02T15:41:44;24.40;;;8.90;;
3267;SDS011;1646;52.450;13.326;2023-05-02T15:46:45;8.17;;;3.80;;
3267;SDS011;1646;52.450;13.326;2023-05-02T15:51:43;13.83;;;3.30;;
3267;SDS011;1646;52.450;13.326;2023-05-02T15:56:41;10.10;;;3.57;;
3267;SDS011;1646;52.450;13.326;2023-05-02T16:01:40;6.90;;;3.10;;
3267;SDS011;1646;52.450;13.326;2023-05-02T16:06:39;11.47;;;4.30;;
3267;SDS011;1646;52.450;13.326;2023-05-02T16:11:38;11.00;;;3.57;;
3267;SDS011;1646;52.450;13.326;2023-05-02T16:16:36;15.10;;;6.17;;
3267;SDS011;1646;52.450;13.326;2023-05-02T16:21:34;19.10;;;6.00;;
3267;SDS011;1646;52.450;13.326;2023-05-02T16:26:34;10.23;;;5.30;;
3267;SDS011;1646;52.450;13.326;2023-05-02T16:31:32;10.43;;;3.67;;
3267;SDS011;1646;52.450;13.326;2023-05-02T16:36:30;10.87;;;3.03;;
3267;SDS011;1646;52.450;13.326;2023-05-02T16:41:29;8.17;;;2.97;;
3267;SDS011;1646;52.450;13.326;2023-05-02T16:46:28;15.20;;;3.23;;
3267;SDS011;1646;52.450;13.326;2023-05-02T16:51:28;7.67;;;3.47;;
3267;SDS011;1646;52.450;13.326;2023-05-02T16:56:27;7.10;;;3.00;;
3267;SDS011;1646;52.450;13.326;2023-05-02T17:01:25;10.90;;;3.67;;
3267;SDS011;1646;52.450;13.326;2023-05-02T17:06:25;8.70;;;2.80;;
3267;SDS011;1646;52.450;13.326;2023-05-02T17:11:24;6.90;;;3.27;;
3267;SDS011;1646;52.450;13.326;2023-05-02T17:16:22;10.70;;;2.87;;
3267;SDS011;1646;52.450;13.326;2023-05-02T17:21:20;6.40;;;2.77;;
3267;SDS011;1646;52.450;13.326;2023-05-02T17:26:20;10.13;;;3.30;;
3267;SDS011;1646;52.450;13.326;2023-05-02T17:31:18;4.87;;;2.53;;
3267;SDS011;1646;52.450;13.326;2023-05-02T17:36:17;8.30;;;3.07;;
3267;SDS011;1646;52.450;13.326;2023-05-02T17:41:15;4.90;;;2.47;;
3267;SDS011;1646;52.450;13.326;2023-05-02T17:46:14;6.27;;;3.10;;
3267;SDS011;1646;52.450;13.326;2023-05-02T17:51:13;9.70;;;3.07;;
3267;SDS011;1646;52.450;13.326;2023-05-02T17:56:11;6.37;;;2.90;;
3267;SDS011;1646;52.450;13.326;2023-05-02T18:01:11;11.27;;;3.23;;
3267;SDS011;1646;52.450;13.326;2023-05-02T18:06:14;9.67;;;2.97;;
3267;SDS011;1646;52.450;13.326;2023-05-02T18:11:13;8.60;;;3.90;;
3267;SDS011;1646;52.450;13.326;2023-05-02T18:16:13;8.70;;;4.20;;
3267;SDS011;1646;52.450;13.326;2023-05-02T18:21:20;8.73;;;3.10;;
3267;SDS011;1646;52.450;13.326;2023-05-02T18:26:18;13.17;;;3.10;;
3267;SDS011;1646;52.450;13.326;2023-05-02T18:31:17;9.50;;;3.83;;
3267;SDS011;1646;52.450;13.326;2023-05-02T18:36:22;7.03;;;3.03;;
3267;SDS011;1646;52.450;13.326;2023-05-02T18:41:23;6.17;;;2.70;;
3267;SDS011;1646;52.450;13.326;2023-05-02T18:46:21;11.73;;;3.00;;
3267;SDS011;1646;52.450;13.326;2023-05-02T18:51:19;8.10;;;2.83;;
3267;SDS011;1646;52.450;13.326;2023-05-02T18:56:19;9.10;;;3.33;;
3267;SDS011;1646;52.450;13.326;2023-05-02T19:01:17;16.43;;;3.67;;
3267;SDS011;1646;52.450;13.326;2023-05-02T19:06:17;7.10;;;3.23;;
3267;SDS011;1646;52.450;13.326;2023-05-02T19:11:15;8.93;;;2.63;;
3267;SDS011;1646;52.450;13.326;2023-05-02T19:16:16;6.17;;;2.97;;
3267;SDS011;1646;52.450;13.326;2023-05-02T19:21:16;8.17;;;3.00;;
3267;SDS011;1646;52.450;13.326;2023-05-02T19:26:16;6.00;;;2.80;;
3267;SDS011;1646;52.450;13.326;2023-05-02T19:31:16;6.13;;;2.20;;
3267;SDS011;1646;52.450;13.326;2023-05-02T19:36:16;6.00;;;2.63;;
3267;SDS011;1646;52.450;13.326;2023-05-02T19:41:14;11.60;;;2.97;;
3267;SDS011;1646;52.450;13.326;2023-05-02T19:46:13;6.87;;;3.00;;
3267;SDS011;1646;52.450;13.326;2023-05-02T19:51:12;11.70;;;2.70;;
3267;SDS011;1646;52.450;13.326;2023-05-02T19:56:11;9.03;;;2.97;;
3267;SDS011;1646;52.450;13.326;2023-05-02T20:01:09;7.03;;;2.30;;
3267;SDS011;1646;52.450;13.326;2023-05-02T20:06:07;5.97;;;2.40;;
3267;SDS011;1646;52.450;13.326;2023-05-02T20:11:07;4.63;;;1.93;;
3267;SDS011;1646;52.450;13.326;2023-05-02T20:16:05;8.77;;;2.60;;
3267;SDS011;1646;52.450;13.326;2023-05-02T20:21:03;5.80;;;2.70;;
3267;SDS011;1646;52.450;13.326;2023-05-02T20:26:02;10.63;;;3.90;;
3267;SDS011;1646;52.450;13.326;2023-05-02T20:31:02;6.57;;;2.77;;
3267;SDS011;1646;52.450;13.326;2023-05-02T20:36:00;6.27;;;2.37;;
3267;SDS011;1646;52.450;13.326;2023-05-02T20:40:58;7.37;;;2.20;;
3267;SDS011;1646;52.450;13.326;2023-05-02T20:45:58;5.50;;;2.20;;
3267;SDS011;1646;52.450;13.326;2023-05-02T20:51:07;3.83;;;2.07;;
3267;SDS011;1646;52.450;13.326;2023-05-02T20:56:05;6.10;;;2.27;;
3267;SDS011;1646;52.450;13.326;2023-05-02T21:01:03;5.73;;;2.43;;
3267;SDS011;1646;52.450;13.326;2023-05-02T21:06:03;5.93;;;1.97;;
3267;SDS011;1646;52.450;13.326;2023-05-02T21:11:02;6.97;;;2.20;;
3267;SDS011;1646;52.450;13.326;2023-05-02T21:16:12;4.63;;;2.13;;
3267;SDS011;1646;52.450;13.326;2023-05-02T21:21:13;4.53;;;2.20;;
3267;SDS011;1646;52.450;13.326;2023-05-02T21:26:11;5.73;;;2.20;;
3267;SDS011;1646;52.450;13.326;2023-05-02T21:31:09;4.20;;;2.20;;
3267;SDS011;1646;52.450;13.326;2023-05-02T21:36:08;7.47;;;2.00;;
3267;SDS011;1646;52.450;13.326;2023-05-02T21:41:07;5.77;;;2.20;;
3267;SDS011;1646;52.450;13.326;2023-05-02T21:46:06;7.30;;;2.40;;
3267;SDS011;1646;52.450;13.326;2023-05-02T21:51:06;2.47;;;2.07;;
3267;SDS011;1646;52.450;13.326;2023-05-02T21:56:05;5.50;;;2.20;;
3267;SDS011;1646;52.450;13.326;2023-05-02T22:01:06;6.67;;;2.23;;
3267;SDS011;1646;52.450;13.326;2023-05-02T22:06:04;3.60;;;2.23;;
3267;SDS011;1646;52.450;13.326;2023-05-02T22:11:04;5.63;;;2.47;;
3267;SDS011;1646;52.450;13.326;2023-05-02T22:16:06;4.57;;;2.27;;
3267;SDS011;1646;52.450;13.326;2023-05-02T22:21:05;6.53;;;2.67;;
3267;SDS011;1646;52.450;13.326;2023-05-02T22:26:03;5.87;;;2.50;;
3267;SDS011;1646;52.450;13.326;2023-05-02T22:31:01;9.67;;;2.20;;
3267;SDS011;1646;52.450;13.326;2023-05-02T22:36:02;5.53;;;2.87;;
3267;SDS011;1646;52.450;13.326;2023-05-02T22:41:00;7.97;;;2.20;;
3267;SDS011;1646;52.450;13.326;2023-05-02T22:45:58;4.83;;;2.67;;
3267;SDS011;1646;52.450;13.326;2023-05-02T22:50:57;4.93;;;2.50;;
3267;SDS011;1646;52.450;13.326;2023-05-02T22:55:57;6.20;;;2.77;;
3267;SDS011;1646;52.450;13.326;2023-05-02T23:00:55;4.60;;;2.03;;
3267;SDS011;1646;52.450;13.326;2023-05-02T23:05:53;7.13;;;2.20;;
3267;SDS011;1646;52.450;13.326;2023-05-02T23:10:51;11.10;;;2.40;;
3267;SDS011;1646;52.450;13.326;2023-05-02T23:15:52;5.77;;;2.30;;
3267;SDS011;1646;52.450;13.326;2023-05-02T23:20:51;7.13;;;2.47;;
3267;SDS011;1646;52.450;13.326;2023-05-02T23:25:49;4.57;;;2.10;;
3267;SDS011;1646;52.450;13.326;2023-05-02T23:30:47;5.80;;;2.30;;
3267;SDS011;1646;52.450;13.326;2023-05-02T23:35:47;8.63;;;2.60;;
3267;SDS011;1646;52.450;13.326;2023-05-02T23:40:45;3.30;;;2.30;;
3267;SDS011;1646;52.450;13.326;2023-05-02T23:45:44;5.37;;;2.77;;
3267;SDS011;1646;52.450;13.326;2023-05-02T23:50:42;4.90;;;2.73;;
3267;SDS011;1646;52.450;13.326;2023-05-02T23:55:41;5.10;;;2.00;;
